createdAt,value
2023-03-23T00:03:21.946Z,3590.00
2023-03-23T00:07:22.146Z,3551.00
2023-03-23T00:11:22.743Z,3223.00
2023-03-23T00:15:22.522Z,3350.00
2023-03-23T00:19:23.275Z,3366.00
2023-03-23T00:23:22.410Z,3360.00
2023-03-23T00:27:22.518Z,3309.00
2023-03-23T00:31:22.363Z,3302.00
2023-03-23T00:35:22.380Z,3228.00
2023-03-23T00:39:22.520Z,3316.00
2023-03-23T00:43:22.727Z,3259.00
2023-03-23T00:47:23.284Z,3228.00
2023-03-23T00:51:23.277Z,3078.00
2023-03-23T00:55:22.950Z,3051.00
2023-03-23T00:59:23.264Z,3076.00
2023-03-23T01:03:23.062Z,3229.00
2023-03-23T01:07:23.084Z,3188.00
2023-03-23T01:11:23.062Z,3091.00
2023-03-23T01:15:23.271Z,2980.00
2023-03-23T01:19:23.082Z,2887.00
2023-03-23T01:23:23.095Z,2871.00
2023-03-23T01:27:23.302Z,2837.00
2023-03-23T01:31:23.281Z,2760.00
2023-03-23T01:35:23.174Z,2796.00
2023-03-23T01:39:23.286Z,2894.00
2023-03-23T01:43:23.389Z,2967.00
2023-03-23T01:47:23.812Z,2868.00
2023-03-23T01:51:28.141Z,2742.00
2023-03-23T01:55:24.382Z,2803.00
2023-03-23T01:59:23.582Z,3034.00
2023-03-23T02:03:23.722Z,3476.00
2023-03-23T02:07:23.807Z,3508.00
2023-03-23T02:11:24.383Z,3265.00
2023-03-23T02:15:24.174Z,3024.00
2023-03-23T02:19:24.804Z,2889.00
2023-03-23T02:23:24.449Z,2841.00
2023-03-23T02:27:24.793Z,2754.00
2023-03-23T02:31:25.274Z,2959.00
2023-03-23T02:35:24.938Z,2925.00
2023-03-23T02:39:24.836Z,2968.00
2023-03-23T02:43:24.865Z,2951.00
2023-03-23T02:47:25.925Z,3023.00
2023-03-23T02:51:24.811Z,3065.00
2023-03-23T02:55:24.977Z,3089.00
2023-03-23T02:59:24.933Z,3083.00
2023-03-23T03:03:25.306Z,3047.00
2023-03-23T03:07:24.808Z,2901.00
2023-03-23T03:11:24.730Z,2843.00
2023-03-23T03:15:24.834Z,2930.00
2023-03-23T03:19:24.702Z,2898.00
2023-03-23T03:23:24.828Z,3016.00
2023-03-23T03:27:24.860Z,3084.00
2023-03-23T03:31:24.561Z,3131.00
2023-03-23T03:35:24.533Z,3166.00
2023-03-23T03:39:24.537Z,3140.00
2023-03-23T03:43:24.470Z,3065.00
2023-03-23T03:47:24.861Z,2728.00
2023-03-23T03:51:25.364Z,2999.00
2023-03-23T03:55:24.828Z,3077.00
2023-03-23T03:59:24.493Z,3069.00
2023-03-23T04:03:24.834Z,3132.00
2023-03-23T04:07:24.872Z,3148.00
2023-03-23T04:11:32.433Z,3204.00
2023-03-23T04:15:25.418Z,3102.00
2023-03-23T04:19:24.847Z,3183.00
2023-03-23T04:23:24.351Z,3258.00
2023-03-23T04:27:24.305Z,3203.00
2023-03-23T04:31:24.280Z,2546.00
2023-03-23T04:35:24.310Z,2362.00
2023-03-23T04:39:24.347Z,2643.00
2023-03-23T04:43:24.550Z,3130.00
2023-03-23T04:47:24.618Z,3509.00
2023-03-23T04:51:24.617Z,3538.00
2023-03-23T04:55:24.692Z,3474.00
2023-03-23T04:59:24.785Z,3414.00
2023-03-23T05:03:24.834Z,3384.00
2023-03-23T05:07:24.918Z,3384.00
2023-03-23T05:11:25.005Z,3376.00
2023-03-23T05:15:25.131Z,3254.00
2023-03-23T05:19:25.107Z,3341.00
2023-03-23T05:23:25.079Z,3396.00
2023-03-23T05:27:25.050Z,3405.00
2023-03-23T05:31:24.975Z,3397.00
2023-03-23T05:35:25.063Z,3436.00
2023-03-23T05:39:25.027Z,3382.00
2023-03-23T05:43:24.889Z,3466.00
2023-03-23T05:47:24.889Z,3300.00
2023-03-23T05:51:24.812Z,3303.00
2023-03-23T05:55:24.777Z,3382.00
2023-03-23T05:59:24.768Z,3514.00
2023-03-23T06:03:24.863Z,3654.00
2023-03-23T06:07:25.014Z,3530.00
2023-03-23T06:11:25.115Z,3449.00
2023-03-23T06:15:25.302Z,3499.00
2023-03-23T06:19:25.418Z,3531.00
2023-03-23T06:23:25.541Z,3390.00
2023-03-23T06:27:25.615Z,3504.00
2023-03-23T06:31:25.710Z,2943.00
2023-03-23T06:35:25.768Z,3315.00
2023-03-23T06:39:25.824Z,3118.00
2023-03-23T06:43:26.016Z,2921.00
2023-03-23T06:47:26.073Z,2853.00
2023-03-23T06:51:26.081Z,3301.00
2023-03-23T06:55:26.117Z,3362.00
2023-03-23T06:59:26.187Z,3298.00
2023-03-23T07:03:26.372Z,3276.00
2023-03-23T07:07:26.408Z,3346.00
2023-03-23T07:11:26.581Z,3270.00
2023-03-23T07:15:26.592Z,3033.00
2023-03-23T07:19:26.537Z,2781.00
2023-03-23T07:25:33.920Z,500.00
2023-03-23T07:29:33.812Z,515.00
2023-03-23T07:33:34.002Z,443.00
2023-03-23T07:37:33.914Z,419.00
2023-03-23T07:41:33.753Z,524.00
2023-03-23T07:45:33.667Z,642.00
2023-03-23T07:49:33.733Z,894.00
2023-03-23T07:53:33.567Z,1153.00
2023-03-23T07:57:33.625Z,1209.00
2023-03-23T08:01:33.769Z,1079.00
2023-03-23T08:05:33.528Z,1047.00
2023-03-23T08:09:33.479Z,1195.00
2023-03-23T08:13:33.512Z,1057.00
2023-03-23T08:17:33.435Z,811.00
2023-03-23T08:21:33.407Z,992.00
2023-03-23T08:25:33.388Z,561.00
2023-03-23T08:29:33.323Z,551.00
2023-03-23T08:33:33.294Z,981.00
2023-03-23T08:37:33.223Z,614.00
2023-03-23T08:41:33.176Z,552.00
2023-03-23T08:45:33.298Z,540.00
2023-03-23T08:49:33.294Z,543.00
2023-03-23T08:53:33.138Z,582.00
2023-03-23T08:57:33.138Z,625.00
2023-03-23T09:01:33.249Z,723.00
2023-03-23T09:05:33.412Z,494.00
2023-03-23T09:09:33.487Z,774.00
2023-03-23T09:13:33.618Z,665.00
2023-03-23T09:17:33.698Z,669.00
2023-03-23T09:21:33.615Z,494.00
2023-03-23T09:25:33.644Z,591.00
2023-03-23T09:29:33.849Z,585.00
2023-03-23T09:33:33.873Z,596.00
2023-03-23T09:37:33.866Z,988.00
2023-03-23T09:41:33.806Z,700.00
2023-03-23T09:45:33.845Z,628.00
2023-03-23T09:49:33.797Z,729.00
2023-03-23T09:53:34.738Z,604.00
2023-03-23T09:57:33.655Z,545.00
2023-03-23T10:01:33.624Z,553.00
2023-03-23T10:05:33.612Z,491.00
2023-03-23T10:09:33.686Z,656.00
2023-03-23T10:13:33.784Z,569.00
2023-03-23T10:17:33.723Z,858.00
2023-03-23T10:21:33.813Z,643.00
2023-03-23T10:25:33.996Z,553.00
2023-03-23T10:29:34.095Z,420.00
2023-03-23T10:33:34.396Z,619.00
2023-03-23T10:37:34.415Z,808.00
2023-03-23T10:41:34.208Z,665.00
2023-03-23T10:45:34.248Z,877.00
2023-03-23T10:49:34.262Z,1220.00
2023-03-23T10:53:34.466Z,1161.00
2023-03-23T10:57:34.696Z,1058.00
2023-03-23T11:01:34.750Z,884.00
2023-03-23T11:05:34.843Z,1331.00
2023-03-23T11:09:34.946Z,1087.00
2023-03-23T11:13:34.827Z,768.00
2023-03-23T11:17:34.851Z,731.00
2023-03-23T11:21:34.963Z,466.00
2023-03-23T11:25:35.143Z,511.00
2023-03-23T11:29:35.269Z,589.00
2023-03-23T11:33:35.611Z,400.00
2023-03-23T11:37:35.356Z,424.00
2023-03-23T11:41:35.644Z,517.00
2023-03-23T11:45:35.637Z,618.00
2023-03-23T11:49:35.507Z,1074.00
2023-03-23T11:53:35.529Z,978.00
2023-03-23T11:57:35.521Z,740.00
2023-03-23T12:01:35.542Z,632.00
2023-03-23T12:05:35.516Z,1005.00
2023-03-23T12:09:35.488Z,1412.00
2023-03-23T12:13:35.506Z,1015.00
2023-03-23T12:17:35.469Z,495.00
2023-03-23T12:21:35.473Z,608.00
2023-03-23T12:25:35.310Z,964.00
2023-03-23T12:29:35.275Z,627.00
2023-03-23T12:33:35.231Z,901.00
2023-03-23T12:37:35.219Z,763.00
2023-03-23T12:41:35.192Z,756.00
2023-03-23T12:45:35.101Z,879.00
2023-03-23T12:49:35.166Z,567.00
2023-03-23T12:53:35.079Z,705.00
2023-03-23T12:57:35.052Z,1160.00
2023-03-23T13:05:45.102Z,500.00
2023-03-23T13:09:45.035Z,414.00
2023-03-23T13:13:48.987Z,596.00
2023-03-23T13:17:45.979Z,515.00
2023-03-23T13:21:51.159Z,469.00
2023-03-23T13:25:45.952Z,400.00
2023-03-23T13:29:44.900Z,453.00
2023-03-23T13:33:45.021Z,435.00
2023-03-23T13:37:44.821Z,554.00
2023-03-23T13:41:44.829Z,634.00
2023-03-23T13:45:45.278Z,916.00
2023-03-23T13:49:44.981Z,634.00
2023-03-23T13:53:44.948Z,501.00
2023-03-23T13:57:59.160Z,582.00
2023-03-23T14:01:54.875Z,561.00
2023-03-23T14:05:44.941Z,400.00
2023-03-23T14:09:44.803Z,421.00
2023-03-23T14:13:44.771Z,790.00
2023-03-23T14:17:44.732Z,626.00
2023-03-23T14:21:44.721Z,509.00
2023-03-23T14:25:44.973Z,799.00
2023-03-23T14:29:44.614Z,963.00
2023-03-23T14:33:44.604Z,1173.00
2023-03-23T14:37:44.523Z,1211.00
2023-03-23T14:41:44.513Z,1650.00
2023-03-23T14:45:44.635Z,1256.00
2023-03-23T14:49:44.451Z,1649.00
2023-03-23T14:53:44.374Z,1423.00
2023-03-23T14:57:44.393Z,1063.00
2023-03-23T15:01:44.275Z,587.00
2023-03-23T15:05:45.101Z,1154.00
2023-03-23T15:09:44.254Z,1535.00
2023-03-23T15:13:44.201Z,957.00
2023-03-23T15:17:44.386Z,1456.00
2023-03-23T15:21:44.206Z,1134.00
2023-03-23T15:25:44.526Z,1495.00
2023-03-23T15:29:44.314Z,2136.00
2023-03-23T15:33:44.399Z,2172.00
2023-03-23T15:37:44.312Z,2161.00
2023-03-23T15:41:56.440Z,2147.00
2023-03-23T15:45:55.955Z,2226.00
2023-03-23T15:49:44.421Z,1892.00
2023-03-23T15:53:44.433Z,1498.00
2023-03-23T16:01:54.670Z,500.00
2023-03-23T16:05:54.623Z,559.00
2023-03-23T16:09:54.686Z,864.00
2023-03-23T16:13:54.624Z,1010.00
2023-03-23T16:17:54.235Z,1304.00
2023-03-23T16:21:54.698Z,1349.00
2023-03-23T16:25:54.296Z,1133.00
2023-03-23T16:30:03.901Z,1235.00
2023-03-23T16:33:55.195Z,1334.00
2023-03-23T16:38:07.086Z,1201.00
2023-03-23T16:41:55.636Z,1242.00
2023-03-23T16:45:54.249Z,1062.00
2023-03-23T16:49:54.650Z,1163.00
2023-03-23T16:53:54.644Z,929.00
2023-03-23T16:58:05.233Z,1013.00
2023-03-23T17:01:55.755Z,1406.00
2023-03-23T17:05:54.349Z,1145.00
2023-03-23T17:09:54.604Z,1221.00
2023-03-23T17:13:54.910Z,1563.00
2023-03-23T17:17:55.464Z,1555.00
2023-03-23T17:21:55.192Z,1851.00
2023-03-23T17:25:55.361Z,2008.00
2023-03-23T17:29:55.759Z,2337.00
2023-03-23T17:33:55.568Z,2219.00
2023-03-23T17:37:55.625Z,2253.00
2023-03-23T17:41:56.217Z,1990.00
2023-03-23T17:45:55.797Z,2077.00
2023-03-23T17:49:55.682Z,2005.00
2023-03-23T17:53:55.716Z,2518.00
2023-03-23T17:57:56.133Z,3063.00
2023-03-23T18:01:55.830Z,3278.00
2023-03-23T18:05:56.314Z,2911.00
2023-03-23T18:09:56.030Z,2760.00
2023-03-23T18:13:56.001Z,2533.00
2023-03-23T18:21:45.993Z,500.00
2023-03-23T18:25:45.506Z,400.00
2023-03-23T18:29:45.136Z,448.00
2023-03-23T18:33:45.075Z,640.00
2023-03-23T18:37:45.423Z,1544.00
2023-03-23T18:41:44.967Z,1129.00
2023-03-23T18:45:45.882Z,1606.00
2023-03-23T18:49:44.915Z,1470.00
2023-03-23T18:53:44.926Z,1455.00
2023-03-23T18:57:44.907Z,2144.00
2023-03-23T19:01:45.038Z,1898.00
2023-03-23T19:05:45.126Z,1816.00
2023-03-23T19:09:44.798Z,2405.00
2023-03-23T19:13:54.298Z,2133.00
2023-03-23T19:17:46.086Z,1977.00
2023-03-23T19:21:47.067Z,2017.00
2023-03-23T19:25:45.013Z,2129.00
2023-03-23T19:29:45.462Z,2218.00
2023-03-23T19:33:44.934Z,2280.00
2023-03-23T19:37:45.622Z,2448.00
2023-03-23T19:41:45.892Z,1489.00
2023-03-23T19:45:45.321Z,1867.00
2023-03-23T19:49:45.447Z,2094.00
2023-03-23T19:53:45.180Z,2054.00
2023-03-23T19:57:45.416Z,1867.00
2023-03-23T20:01:45.343Z,1912.00
2023-03-23T20:05:45.761Z,2510.00
2023-03-23T20:09:45.910Z,2724.00
2023-03-23T20:13:45.607Z,2068.00
2023-03-23T20:17:46.196Z,1738.00
2023-03-23T20:21:45.870Z,1696.00
2023-03-23T20:25:46.650Z,2033.00
2023-03-23T20:29:46.151Z,2306.00
2023-03-23T20:33:46.588Z,2440.00
2023-03-23T20:37:47.325Z,2293.00
2023-03-23T20:41:46.447Z,2312.00
2023-03-23T20:45:47.359Z,2605.00
2023-03-23T20:49:53.755Z,1985.00
2023-03-23T20:53:47.958Z,2025.00
2023-03-23T20:57:47.092Z,2290.00
2023-03-23T21:01:46.904Z,2235.00
2023-03-23T21:05:46.896Z,1966.00
2023-03-23T21:09:46.852Z,2111.00
2023-03-23T21:13:46.788Z,2151.00
2023-03-23T21:17:47.065Z,1805.00
2023-03-23T21:21:56.653Z,1722.00
2023-03-23T21:25:47.982Z,1614.00
2023-03-23T21:29:46.656Z,1669.00
2023-03-23T21:33:46.997Z,1605.00
2023-03-23T21:37:46.509Z,1896.00
2023-03-23T21:41:46.977Z,2245.00
2023-03-23T21:45:46.945Z,2171.00
2023-03-23T21:49:46.510Z,2161.00
2023-03-23T21:53:46.577Z,1714.00
2023-03-23T21:57:46.454Z,1390.00
2023-03-23T22:01:46.517Z,1183.00
2023-03-23T22:05:46.457Z,1377.00
2023-03-23T22:09:46.528Z,1708.00
2023-03-23T22:13:46.961Z,1921.00
2023-03-23T22:17:46.689Z,1905.00
2023-03-23T22:21:46.859Z,2168.00
2023-03-23T22:25:46.809Z,2230.00
2023-03-23T22:29:46.978Z,1656.00
2023-03-23T22:33:46.929Z,1568.00
2023-03-23T22:37:47.092Z,1294.00
2023-03-23T22:41:47.169Z,1577.00
2023-03-23T22:45:47.548Z,1544.00
2023-03-23T22:49:47.490Z,1286.00
2023-03-23T22:53:47.556Z,1426.00
2023-03-23T22:57:47.984Z,1508.00
2023-03-23T23:01:47.904Z,1559.00
2023-03-23T23:05:48.217Z,1588.00
2023-03-23T23:09:48.373Z,1607.00
2023-03-23T23:13:48.637Z,1597.00
2023-03-23T23:17:48.632Z,1710.00
2023-03-23T23:21:48.470Z,1541.00
2023-03-23T23:25:48.776Z,1522.00
2023-03-23T23:29:48.367Z,1224.00
2023-03-23T23:33:48.350Z,1162.00
2023-03-23T23:37:48.440Z,1078.00
2023-03-23T23:41:48.296Z,948.00
2023-03-23T23:45:48.292Z,856.00
2023-03-23T23:49:48.221Z,858.00
2023-03-23T23:53:48.386Z,859.00
2023-03-23T23:57:48.601Z,731.00
